createdAt,value
2022-11-06T00:00:32.940Z,97205.53
2022-11-06T00:02:59.781Z,97197.38
2022-11-06T00:05:45.604Z,97191.63
2022-11-06T00:08:12.346Z,97196.66
2022-11-06T00:10:39.053Z,97191.44
2022-11-06T00:13:18.557Z,97193.88
2022-11-06T00:15:44.975Z,97196.00
2022-11-06T00:18:11.600Z,97191.03
2022-11-06T00:20:38.236Z,97196.50
2022-11-06T00:23:04.633Z,97196.94
2022-11-06T00:25:31.069Z,97194.94
2022-11-06T00:27:57.476Z,97186.44
2022-11-06T00:30:23.913Z,97184.78
2022-11-06T00:32:50.321Z,97194.94
2022-11-06T00:35:16.936Z,97186.22
2022-11-06T00:37:43.349Z,97179.56
2022-11-06T00:40:10.070Z,97188.06
2022-11-06T00:42:36.484Z,97182.16
2022-11-06T00:45:02.938Z,97182.13
2022-11-06T00:47:29.354Z,97177.00
2022-11-06T00:49:55.794Z,97175.00
2022-11-06T00:52:22.226Z,97176.50
2022-11-06T00:54:48.686Z,97173.28
2022-11-06T00:57:15.118Z,97173.00
2022-11-06T00:59:41.525Z,97175.09
2022-11-06T01:02:08.103Z,97176.66
2022-11-06T01:04:34.790Z,97177.00
2022-11-06T01:07:01.229Z,97169.31
2022-11-06T01:09:28.394Z,97160.72
2022-11-06T01:12:13.303Z,97156.31
2022-11-06T01:14:40.390Z,97167.13
2022-11-06T01:17:06.842Z,97161.28
2022-11-06T01:19:33.262Z,97162.41
2022-11-06T01:21:59.662Z,97169.13
2022-11-06T01:24:27.002Z,97169.59
2022-11-06T01:27:24.269Z,97174.75
2022-11-06T01:29:40.076Z,97162.22
2022-11-06T01:32:06.605Z,97163.19
2022-11-06T01:34:33.061Z,97152.03
2022-11-06T01:36:59.494Z,97154.63
2022-11-06T01:39:25.970Z,97150.66
2022-11-06T01:41:52.723Z,97146.19
2022-11-06T01:44:38.284Z,97147.91
2022-11-06T01:47:05.603Z,97151.94
2022-11-06T01:49:36.205Z,97134.41
2022-11-06T01:52:03.687Z,97134.72
2022-11-06T01:54:30.206Z,97131.47
2022-11-06T01:56:57.410Z,97132.66
2022-11-06T01:59:24.592Z,97140.34
2022-11-06T02:01:51.336Z,97152.91
2022-11-06T02:04:29.017Z,97150.81
2022-11-06T02:06:55.426Z,97143.28
2022-11-06T02:09:21.858Z,97138.53
2022-11-06T02:11:52.171Z,97129.88
2022-11-06T02:14:21.579Z,97125.19
2022-11-06T02:16:57.170Z,97121.66
2022-11-06T02:19:38.888Z,97117.47
2022-11-06T02:22:17.281Z,97122.72
2022-11-06T02:24:46.740Z,97102.88
2022-11-06T02:27:17.009Z,97095.03
2022-11-06T02:29:49.582Z,97102.53
2022-11-06T02:32:17.729Z,97087.50
2022-11-06T02:34:44.154Z,97087.72
2022-11-06T02:37:12.622Z,97097.53
2022-11-06T02:39:39.780Z,97101.13
2022-11-06T02:42:06.504Z,97105.72
2022-11-06T02:44:32.935Z,97106.38
2022-11-06T02:47:01.211Z,97105.41
2022-11-06T02:49:27.634Z,97081.22
2022-11-06T02:51:55.827Z,97092.97
2022-11-06T02:54:22.561Z,97091.00
2022-11-06T02:56:49.865Z,97092.13
2022-11-06T02:59:23.906Z,97079.16
2022-11-06T03:01:51.997Z,97086.72
2022-11-06T03:04:23.281Z,97086.72
2022-11-06T03:07:09.962Z,97097.53
2022-11-06T03:09:36.427Z,97112.44
2022-11-06T03:12:12.626Z,97097.88
2022-11-06T03:14:54.410Z,97102.16
2022-11-06T03:17:22.140Z,97092.06
2022-11-06T03:19:48.568Z,97095.84
2022-11-06T03:22:16.981Z,97097.81
2022-11-06T03:25:03.665Z,97107.47
2022-11-06T03:27:33.203Z,97093.91
2022-11-06T03:30:02.746Z,97085.19
2022-11-06T03:32:48.938Z,97085.53
2022-11-06T03:35:26.857Z,97095.00
2022-11-06T03:38:11.737Z,97092.06
2022-11-06T03:40:40.324Z,97093.31
2022-11-06T03:43:06.751Z,97085.44
2022-11-06T03:45:33.264Z,97085.75
2022-11-06T03:47:59.668Z,97073.94
2022-11-06T03:50:26.777Z,97062.84
2022-11-06T03:52:55.486Z,97070.38
2022-11-06T03:55:22.788Z,97054.13
2022-11-06T03:57:53.272Z,97054.03
2022-11-06T04:00:20.563Z,97055.00
2022-11-06T04:02:49.456Z,97061.06
2022-11-06T04:05:17.950Z,97064.03
2022-11-06T04:08:05.319Z,97076.59
2022-11-06T04:10:50.560Z,97071.69
2022-11-06T04:13:35.713Z,97071.06
2022-11-06T04:16:02.215Z,97071.38
2022-11-06T04:18:28.633Z,97079.84
2022-11-06T04:21:27.488Z,97087.72
2022-11-06T04:24:13.851Z,97087.41
2022-11-06T04:26:43.204Z,97089.34
2022-11-06T04:29:14.809Z,97077.53
2022-11-06T04:31:43.207Z,97088.69
2022-11-06T04:34:13.711Z,97093.91
2022-11-06T04:36:42.743Z,97087.34
2022-11-06T04:39:12.137Z,97088.31
2022-11-06T04:41:50.945Z,97092.56
2022-11-06T04:44:27.638Z,97081.28
2022-11-06T04:46:56.322Z,97085.03
2022-11-06T04:49:22.741Z,97076.19
2022-11-06T04:51:49.186Z,97074.41
2022-11-06T04:54:15.637Z,97077.25
2022-11-06T04:56:46.007Z,97075.31
2022-11-06T04:59:14.722Z,97067.63
2022-11-06T05:01:41.278Z,97063.88
2022-11-06T05:04:07.817Z,97058.69
2022-11-06T05:06:34.248Z,97060.94
2022-11-06T05:09:01.296Z,97055.03
2022-11-06T05:11:27.708Z,97059.91
2022-11-06T05:13:54.293Z,97057.63
2022-11-06T05:16:20.726Z,97051.34
2022-11-06T05:18:47.140Z,97045.00
2022-11-06T05:21:32.243Z,97047.09
2022-11-06T05:23:58.637Z,97041.03
2022-11-06T05:26:25.523Z,97036.41
2022-11-06T05:28:51.958Z,97032.28
2022-11-06T05:31:18.361Z,97032.81
2022-11-06T05:33:44.778Z,97013.84
2022-11-06T05:36:11.250Z,97008.06
2022-11-06T05:38:37.704Z,97010.03
2022-11-06T05:41:04.227Z,97008.06
2022-11-06T05:43:30.765Z,97015.25
2022-11-06T05:45:57.197Z,97013.00
2022-11-06T05:48:23.625Z,96998.44
2022-11-06T05:50:50.088Z,96995.88
2022-11-06T05:53:16.851Z,96994.06
2022-11-06T05:55:45.164Z,96997.28
2022-11-06T05:58:11.898Z,97000.53
2022-11-06T06:00:38.621Z,96994.03
2022-11-06T06:03:05.099Z,96985.19
2022-11-06T06:05:31.534Z,96990.97
2022-11-06T06:07:57.946Z,96998.81
2022-11-06T06:10:24.401Z,97002.53
2022-11-06T06:12:50.833Z,96988.34
2022-11-06T06:15:17.590Z,96991.78
2022-11-06T06:17:45.382Z,96986.81
2022-11-06T06:20:12.033Z,96991.94
2022-11-06T06:22:38.471Z,96985.19
2022-11-06T06:25:07.602Z,96978.03
2022-11-06T06:27:38.722Z,96973.97
2022-11-06T06:30:05.397Z,96971.84
2022-11-06T06:32:31.810Z,96976.44
2022-11-06T06:34:58.212Z,96963.06
2022-11-06T06:37:24.636Z,96966.03
2022-11-06T06:39:51.056Z,96970.66
2022-11-06T06:42:17.526Z,96972.13
2022-11-06T06:44:43.970Z,96977.84
2022-11-06T06:47:10.430Z,96976.06
2022-11-06T06:49:36.937Z,96972.78
2022-11-06T06:52:04.319Z,96976.59
2022-11-06T06:54:30.716Z,96980.69
2022-11-06T06:56:57.155Z,96962.50
2022-11-06T06:59:23.587Z,96956.63
2022-11-06T07:01:50.283Z,96954.97
2022-11-06T07:04:16.810Z,96947.78
2022-11-06T07:06:43.254Z,96952.19
2022-11-06T07:09:09.653Z,96953.53
2022-11-06T07:11:36.081Z,96953.53
2022-11-06T07:14:02.500Z,96950.09
2022-11-06T07:16:30.010Z,96951.72
2022-11-06T07:18:56.397Z,96945.50
2022-11-06T07:21:22.882Z,96956.47
2022-11-06T07:23:49.278Z,96951.06
2022-11-06T07:26:15.889Z,96955.00
2022-11-06T07:28:42.325Z,96964.69
2022-11-06T07:31:08.907Z,96954.34
2022-11-06T07:33:35.506Z,96961.22
2022-11-06T07:36:02.714Z,96957.97
2022-11-06T07:38:29.155Z,96959.31
2022-11-06T07:40:55.573Z,96967.81
2022-11-06T07:43:24.813Z,96972.88
2022-11-06T07:45:51.580Z,96979.94
2022-11-06T07:48:18.009Z,96973.53
2022-11-06T07:50:44.417Z,96972.88
2022-11-06T07:53:11.000Z,96965.81
2022-11-06T07:55:41.943Z,96965.31
2022-11-06T07:58:08.838Z,96966.78
2022-11-06T08:00:35.295Z,96958.25
2022-11-06T08:03:01.760Z,96954.97
2022-11-06T08:05:28.158Z,96971.19
2022-11-06T08:07:57.923Z,96980.53
2022-11-06T08:10:24.337Z,96963.16
2022-11-06T08:12:50.750Z,96973.47
2022-11-06T08:15:17.168Z,96968.53
2022-11-06T08:17:43.606Z,96966.72
2022-11-06T08:20:10.146Z,96968.53
2022-11-06T08:22:36.614Z,96963.09
2022-11-06T08:25:03.107Z,96952.59
2022-11-06T08:27:29.580Z,96954.06
2022-11-06T08:29:55.998Z,96949.25
2022-11-06T08:32:22.453Z,96962.06
2022-11-06T08:34:48.830Z,96942.25
2022-11-06T08:37:15.255Z,96935.81
2022-11-06T08:39:41.675Z,96933.38
2022-11-06T08:42:08.197Z,96929.91
2022-11-06T08:44:34.885Z,96929.69
2022-11-06T08:47:01.353Z,96934.63
2022-11-06T08:49:27.793Z,96923.66
2022-11-06T08:51:54.736Z,96929.88
2022-11-06T08:54:21.142Z,96923.72
2022-11-06T08:56:47.567Z,96930.69
2022-11-06T08:59:14.002Z,96927.78
2022-11-06T09:01:40.515Z,96926.22
2022-11-06T09:04:08.006Z,96931.97
2022-11-06T09:06:34.471Z,96915.25
2022-11-06T09:09:00.936Z,96903.50
2022-11-06T09:11:27.354Z,96902.50
2022-11-06T09:13:53.804Z,96902.56
2022-11-06T09:16:20.222Z,96900.44
2022-11-06T09:18:46.656Z,96913.41
2022-11-06T09:21:13.076Z,96905.84
2022-11-06T09:23:39.777Z,96902.75
2022-11-06T09:26:06.192Z,96887.72
2022-11-06T09:28:32.629Z,96892.22
2022-11-06T09:30:59.038Z,96887.34
2022-11-06T09:33:25.867Z,96891.69
2022-11-06T09:35:52.783Z,96888.41
2022-11-06T09:38:19.249Z,96889.59
2022-11-06T09:40:50.185Z,96885.56
2022-11-06T09:43:50.402Z,96874.56
2022-11-06T09:46:17.677Z,96867.22
2022-11-06T09:48:44.995Z,96869.91
2022-11-06T09:51:20.678Z,96873.97
2022-11-06T09:53:47.133Z,96871.53
2022-11-06T09:56:13.890Z,96864.44
2022-11-06T09:58:42.071Z,96862.03
2022-11-06T10:01:23.291Z,96865.91
2022-11-06T10:04:14.840Z,96865.00
2022-11-06T10:06:41.234Z,96852.72
2022-11-06T10:09:07.672Z,96860.91
2022-11-06T10:11:50.668Z,96850.47
2022-11-06T10:14:17.116Z,96845.25
2022-11-06T10:16:50.062Z,96834.75
2022-11-06T10:19:35.957Z,96830.63
2022-11-06T10:22:14.442Z,96830.50
2022-11-06T10:24:57.506Z,96834.09
2022-11-06T10:27:26.365Z,96837.59
2022-11-06T10:29:58.850Z,96836.69
2022-11-06T10:32:35.350Z,96816.75
2022-11-06T10:35:20.693Z,96844.94
2022-11-06T10:37:51.326Z,96827.38
2022-11-06T10:40:19.158Z,96828.06
2022-11-06T10:42:46.687Z,96812.19
2022-11-06T10:45:16.681Z,96808.69
2022-11-06T10:47:53.933Z,96804.13
2022-11-06T10:50:20.467Z,96795.78
2022-11-06T10:52:46.991Z,96793.53
2022-11-06T10:55:31.882Z,96789.13
2022-11-06T10:58:02.329Z,96788.56
2022-11-06T11:00:29.014Z,96771.56
2022-11-06T11:03:15.670Z,96771.91
2022-11-06T11:05:42.759Z,96757.53
2022-11-06T11:08:27.949Z,96766.72
2022-11-06T11:11:04.938Z,96773.63
2022-11-06T11:13:31.897Z,96754.47
2022-11-06T11:15:58.345Z,96752.41
2022-11-06T11:18:31.930Z,96742.00
2022-11-06T11:21:05.746Z,96740.50
2022-11-06T11:23:32.349Z,96718.50
2022-11-06T11:26:15.947Z,96730.94
2022-11-06T11:28:42.381Z,96725.19
2022-11-06T11:31:12.317Z,96720.94
2022-11-06T11:33:39.194Z,96703.38
2022-11-06T11:36:06.757Z,96692.75
2022-11-06T11:38:36.842Z,96684.00
2022-11-06T11:41:11.857Z,96679.13
2022-11-06T11:43:38.341Z,96659.44
2022-11-06T11:46:07.792Z,96660.16
2022-11-06T11:48:49.423Z,96664.25
2022-11-06T11:51:15.793Z,96666.25
2022-11-06T11:53:42.276Z,96664.03
2022-11-06T11:56:08.693Z,96668.34
2022-11-06T11:58:35.167Z,96646.47
2022-11-06T12:01:02.238Z,96641.00
2022-11-06T12:03:29.514Z,96637.41
2022-11-06T12:06:04.190Z,96647.97
2022-11-06T12:08:30.618Z,96650.69
2022-11-06T12:11:01.398Z,96629.72
2022-11-06T12:13:27.828Z,96643.44
2022-11-06T12:15:55.837Z,96626.84
2022-11-06T12:18:29.580Z,96622.41
2022-11-06T12:21:14.522Z,96627.06
2022-11-06T12:23:43.022Z,96614.97
2022-11-06T12:26:09.383Z,96604.66
2022-11-06T12:28:36.271Z,96606.28
2022-11-06T12:31:04.053Z,96589.41
2022-11-06T12:34:00.022Z,96592.38
2022-11-06T12:36:18.309Z,96625.25
2022-11-06T12:38:46.543Z,96619.56
2022-11-06T12:41:23.458Z,96593.06
2022-11-06T12:43:50.632Z,96587.78
2022-11-06T12:46:35.693Z,96585.53
2022-11-06T12:49:09.806Z,96566.28
2022-11-06T12:51:42.666Z,96552.78
2022-11-06T12:54:12.110Z,96540.31
2022-11-06T12:56:41.517Z,96566.75
2022-11-06T12:59:11.005Z,96552.19
2022-11-06T13:01:53.910Z,96535.50
2022-11-06T13:04:34.300Z,96532.88
2022-11-06T13:07:14.779Z,96519.31
2022-11-06T13:09:48.032Z,96521.78
2022-11-06T13:12:25.017Z,96511.59
2022-11-06T13:15:10.287Z,96506.84
2022-11-06T13:18:02.967Z,96492.97
2022-11-06T13:20:38.539Z,96498.69
2022-11-06T13:23:13.502Z,96514.25
2022-11-06T13:25:53.130Z,96494.75
2022-11-06T13:28:22.755Z,96499.84
2022-11-06T13:30:49.240Z,96504.91
2022-11-06T13:33:25.721Z,96512.38
2022-11-06T13:35:52.192Z,96504.09
2022-11-06T13:38:20.969Z,96503.69
2022-11-06T13:40:48.723Z,96489.47
2022-11-06T13:43:17.282Z,96498.41
2022-11-06T13:45:46.201Z,96499.03
2022-11-06T13:48:18.412Z,96484.69
2022-11-06T13:50:50.675Z,96503.00
2022-11-06T13:53:35.918Z,96502.78
2022-11-06T13:56:22.599Z,96526.53
2022-11-06T13:58:53.836Z,96512.78
2022-11-06T14:01:35.619Z,96513.34
2022-11-06T14:04:08.202Z,96500.41
2022-11-06T14:06:34.629Z,96493.66
2022-11-06T14:09:13.243Z,96530.72
2022-11-06T14:11:40.486Z,96509.81
2022-11-06T14:14:07.797Z,96519.56
2022-11-06T14:16:34.390Z,96513.91
2022-11-06T14:19:02.538Z,96506.19
2022-11-06T14:21:52.295Z,96515.06
2022-11-06T14:24:38.061Z,96499.97
2022-11-06T14:27:06.876Z,96499.28
2022-11-06T14:29:33.248Z,96487.38
2022-11-06T14:32:02.799Z,96474.69
2022-11-06T14:34:30.173Z,96486.38
2022-11-06T14:36:56.589Z,96497.50
2022-11-06T14:39:58.448Z,96466.53
2022-11-06T14:42:35.087Z,96478.00
2022-11-06T14:45:10.745Z,96485.50
2022-11-06T14:47:37.190Z,96474.28
2022-11-06T14:50:24.700Z,96474.44
2022-11-06T14:52:55.834Z,96483.69
2022-11-06T14:55:42.549Z,96479.72
2022-11-06T14:58:13.784Z,96480.28
2022-11-06T15:00:44.904Z,96459.81
2022-11-06T15:03:34.709Z,96460.16
2022-11-06T15:06:08.638Z,96476.09
2022-11-06T15:08:48.149Z,96466.00
2022-11-06T15:11:47.673Z,96477.09
2022-11-06T15:14:14.561Z,96469.41
2022-11-06T15:16:49.956Z,96476.06
2022-11-06T15:19:20.612Z,96457.19
2022-11-06T15:21:57.921Z,96454.13
2022-11-06T15:24:34.508Z,96445.38
2022-11-06T15:27:05.195Z,96448.94
2022-11-06T15:29:32.309Z,96428.09
2022-11-06T15:31:59.277Z,96428.47
2022-11-06T15:34:36.775Z,96415.53
2022-11-06T15:37:03.192Z,96406.84
2022-11-06T15:39:29.738Z,96419.91
2022-11-06T15:41:56.467Z,96403.78
2022-11-06T15:44:23.426Z,96426.56
2022-11-06T15:46:53.989Z,96426.00
2022-11-06T15:49:20.658Z,96430.44
2022-11-06T15:51:51.514Z,96425.19
2022-11-06T15:54:56.873Z,96446.19
2022-11-06T15:57:24.653Z,96436.94
2022-11-06T15:59:51.123Z,96435.69
2022-11-06T16:02:19.442Z,96432.06
2022-11-06T16:04:46.237Z,96446.94
2022-11-06T16:07:12.934Z,96466.13
2022-11-06T16:09:40.263Z,96450.56
2022-11-06T16:12:06.771Z,96458.63
2022-11-06T16:14:33.130Z,96486.72
2022-11-06T16:16:59.848Z,96462.34
2022-11-06T16:19:26.369Z,96458.25
2022-11-06T16:22:03.443Z,96478.84
2022-11-06T16:24:34.488Z,96475.34
2022-11-06T16:27:01.575Z,96467.28
2022-11-06T16:29:29.497Z,96471.47
2022-11-06T16:32:00.351Z,96431.06
2022-11-06T16:34:55.206Z,96473.09
2022-11-06T16:37:27.697Z,96450.53
2022-11-06T16:39:55.983Z,96453.53
2022-11-06T16:42:22.431Z,96461.03
2022-11-06T16:44:49.853Z,96460.78
2022-11-06T16:47:20.249Z,96475.69
2022-11-06T16:49:53.696Z,96437.00
2022-11-06T16:52:33.875Z,96412.06
2022-11-06T16:55:03.404Z,96415.78
2022-11-06T16:57:50.089Z,96439.59
2022-11-06T17:00:19.511Z,96423.78
2022-11-06T17:02:49.221Z,96441.88
2022-11-06T17:05:17.553Z,96426.28
2022-11-06T17:07:44.449Z,96438.56
2022-11-06T17:10:29.785Z,96422.00
2022-11-06T17:12:56.202Z,96397.00
2022-11-06T17:15:22.682Z,96419.94
2022-11-06T17:17:49.349Z,96388.56
2022-11-06T17:20:16.258Z,96348.44
2022-11-06T17:22:42.697Z,96388.19
2022-11-06T17:25:09.148Z,96378.34
2022-11-06T17:27:35.570Z,96373.75
2022-11-06T17:30:02.037Z,96349.53
2022-11-06T17:32:28.408Z,96342.53
2022-11-06T17:34:54.810Z,96358.25
2022-11-06T17:37:22.082Z,96361.00
2022-11-06T17:39:48.682Z,96394.41
2022-11-06T17:42:15.096Z,96373.47
2022-11-06T17:44:41.522Z,96339.06
2022-11-06T17:47:07.901Z,96346.28
2022-11-06T17:49:34.346Z,96355.94
2022-11-06T17:52:00.992Z,96391.78
2022-11-06T17:54:28.677Z,96363.53
2022-11-06T17:56:55.303Z,96389.56
2022-11-06T17:59:21.944Z,96361.91
2022-11-06T18:01:50.434Z,96364.16
2022-11-06T18:04:17.584Z,96372.69
2022-11-06T18:06:44.870Z,96355.78
2022-11-06T18:09:11.544Z,96354.63
2022-11-06T18:11:37.929Z,96352.19
2022-11-06T18:14:04.372Z,96365.91
2022-11-06T18:16:32.323Z,96358.59
2022-11-06T18:18:59.091Z,96343.69
2022-11-06T18:21:25.679Z,96346.75
2022-11-06T18:23:52.216Z,96336.81
2022-11-06T18:26:21.218Z,96330.78
2022-11-06T18:28:47.911Z,96337.97
2022-11-06T18:31:14.296Z,96348.56
2022-11-06T18:33:40.681Z,96321.91
2022-11-06T18:36:08.430Z,96325.88
2022-11-06T18:38:34.853Z,96325.56
2022-11-06T18:41:11.497Z,96318.13
2022-11-06T18:43:37.982Z,96308.31
2022-11-06T18:46:08.153Z,96338.28
2022-11-06T18:48:34.593Z,96319.00
2022-11-06T18:51:07.826Z,96319.94
2022-11-06T18:53:34.314Z,96317.34
2022-11-06T18:56:00.815Z,96309.31
2022-11-06T18:58:27.215Z,96328.63
2022-11-06T19:00:58.984Z,96324.38
2022-11-06T19:03:28.002Z,96335.44
2022-11-06T19:05:54.441Z,96336.31
2022-11-06T19:08:20.850Z,96335.97
2022-11-06T19:10:47.504Z,96336.25
2022-11-06T19:13:13.941Z,96335.50
2022-11-06T19:15:40.450Z,96338.13
2022-11-06T19:18:06.835Z,96327.19
2022-11-06T19:20:33.297Z,96330.81
2022-11-06T19:22:59.726Z,96346.00
2022-11-06T19:25:26.494Z,96335.31
2022-11-06T19:27:53.849Z,96338.06
2022-11-06T19:30:20.280Z,96347.44
2022-11-06T19:32:46.701Z,96338.13
2022-11-06T19:35:15.309Z,96345.09
2022-11-06T19:37:41.900Z,96339.13
2022-11-06T19:40:08.508Z,96351.16
2022-11-06T19:42:34.915Z,96344.81
2022-11-06T19:45:01.587Z,96348.38
2022-11-06T19:47:28.190Z,96353.25
2022-11-06T19:49:54.657Z,96363.72
2022-11-06T19:52:41.829Z,96346.19
2022-11-06T19:55:26.118Z,96353.34
2022-11-06T19:57:53.941Z,96361.91
2022-11-06T20:00:20.418Z,96352.88
2022-11-06T20:02:50.816Z,96350.06
2022-11-06T20:05:17.491Z,96352.44
2022-11-06T20:07:43.934Z,96362.19
2022-11-06T20:10:10.385Z,96372.75
2022-11-06T20:12:36.778Z,96364.06
2022-11-06T20:15:03.380Z,96362.63
2022-11-06T20:17:29.801Z,96371.69
2022-11-06T20:19:56.528Z,96362.91
2022-11-06T20:22:23.423Z,96370.03
2022-11-06T20:24:49.830Z,96383.97
2022-11-06T20:27:16.241Z,96390.84
2022-11-06T20:29:42.751Z,96385.78
2022-11-06T20:32:09.820Z,96392.03
2022-11-06T20:34:36.309Z,96397.72
2022-11-06T20:37:02.777Z,96387.03
2022-11-06T20:39:29.208Z,96392.09
2022-11-06T20:41:55.675Z,96401.97
2022-11-06T20:44:22.072Z,96404.97
2022-11-06T20:46:48.518Z,96406.03
2022-11-06T20:49:14.986Z,96399.28
2022-11-06T20:52:07.436Z,96412.03
2022-11-06T20:54:27.802Z,96409.03
2022-11-06T20:56:54.237Z,96415.63
2022-11-06T20:59:20.722Z,96422.06
2022-11-06T21:01:47.347Z,96420.06
2022-11-06T21:04:14.078Z,96426.22
2022-11-06T21:06:40.650Z,96438.53
2022-11-06T21:09:07.181Z,96426.59
2022-11-06T21:11:34.074Z,96429.09
2022-11-06T21:14:00.503Z,96442.41
2022-11-06T21:16:31.500Z,96437.16
2022-11-06T21:18:58.667Z,96433.91
2022-11-06T21:21:25.850Z,96436.72
2022-11-06T21:23:52.633Z,96439.78
2022-11-06T21:26:20.565Z,96439.78
2022-11-06T21:28:47.027Z,96439.34
2022-11-06T21:31:14.733Z,96436.53
2022-11-06T21:33:44.796Z,96448.19
2022-11-06T21:36:12.358Z,96440.78
2022-11-06T21:38:38.812Z,96440.16
2022-11-06T21:41:06.574Z,96445.66
2022-11-06T21:43:33.039Z,96454.53
2022-11-06T21:46:06.210Z,96461.41
2022-11-06T21:48:46.022Z,96462.31
2022-11-06T21:51:17.908Z,96455.53
2022-11-06T21:54:03.657Z,96467.03
2022-11-06T21:56:30.181Z,96468.81
2022-11-06T21:58:57.499Z,96468.66
2022-11-06T22:01:24.464Z,96472.63
2022-11-06T22:03:51.019Z,96466.94
2022-11-06T22:06:20.411Z,96478.50
2022-11-06T22:08:47.212Z,96471.19
2022-11-06T22:11:16.677Z,96478.25
2022-11-06T22:13:44.100Z,96472.38
2022-11-06T22:16:10.949Z,96466.38
2022-11-06T22:18:37.547Z,96478.50
2022-11-06T22:21:36.410Z,96475.38
2022-11-06T22:24:02.846Z,96481.94
2022-11-06T22:26:30.165Z,96485.03
2022-11-06T22:28:57.465Z,96472.81
2022-11-06T22:31:24.108Z,96489.56
2022-11-06T22:33:53.636Z,96485.94
2022-11-06T22:36:20.683Z,96484.56
2022-11-06T22:38:47.174Z,96491.63
2022-11-06T22:41:14.500Z,96494.72
2022-11-06T22:43:41.460Z,96496.97
2022-11-06T22:46:18.223Z,96494.81
2022-11-06T22:48:45.347Z,96493.19
2022-11-06T22:51:13.342Z,96485.66
2022-11-06T22:53:40.014Z,96490.91
2022-11-06T22:56:06.824Z,96493.00
2022-11-06T22:58:33.381Z,96502.13
2022-11-06T23:00:59.953Z,96500.16
2022-11-06T23:03:27.262Z,96504.75
2022-11-06T23:05:57.966Z,96497.16
2022-11-06T23:08:24.853Z,96496.34
2022-11-06T23:10:51.227Z,96491.28
2022-11-06T23:13:17.687Z,96499.59
2022-11-06T23:15:44.094Z,96500.84
2022-11-06T23:18:10.528Z,96505.13
2022-11-06T23:20:36.949Z,96504.94
2022-11-06T23:23:03.884Z,96489.38
2022-11-06T23:25:30.463Z,96495.69
2022-11-06T23:27:58.308Z,96497.50
2022-11-06T23:30:24.706Z,96505.84
2022-11-06T23:32:51.127Z,96505.28
2022-11-06T23:35:19.497Z,96494.78
2022-11-06T23:37:47.654Z,96506.28
2022-11-06T23:40:14.154Z,96505.09
2022-11-06T23:42:40.684Z,96496.69
2022-11-06T23:45:25.848Z,96510.88
2022-11-06T23:47:52.304Z,96519.97
2022-11-06T23:50:18.768Z,96514.06
2022-11-06T23:52:45.237Z,96514.69
2022-11-06T23:55:11.917Z,96512.16
2022-11-06T23:57:38.448Z,96521.38
